sensor_id;sensor_type;location;lat;lon;timestamp;pressure;altitude;pressure_sealevel;temperature;humidity
23433;BME280;41331;45.412;10.992;2023-04-01T00:00:12;99726.63;;;10.73;100.00
23433;BME280;41331;45.412;10.992;2023-04-01T00:02:40;99737.50;;;10.73;100.00
23433;BME280;41331;45.412;10.992;2023-04-01T00:05:08;99735.00;;;10.80;100.00
23433;BME280;41331;45.412;10.992;2023-04-01T00:07:40;99738.41;;;10.77;100.00
23433;BME280;41331;45.412;10.992;2023-04-01T00:10:10;99746.28;;;10.66;100.00
23433;BME280;41331;45.412;10.992;2023-04-01T00:12:38;99744.41;;;10.54;100.00
23433;BME280;41331;45.412;10.992;2023-04-01T00:15:08;99746.78;;;10.44;100.00
23433;BME280;41331;45.412;10.992;2023-04-01T00:17:35;99740.47;;;10.40;100.00
23433;BME280;41331;45.412;10.992;2023-04-01T00:20:05;99744.06;;;10.44;100.00
23433;BME280;41331;45.412;10.992;2023-04-01T00:22:34;99746.88;;;10.47;100.00
23433;BME280;41331;45.412;10.992;2023-04-01T00:25:03;99744.97;;;10.48;100.00
23433;BME280;41331;45.412;10.992;2023-04-01T00:27:31;99741.69;;;10.42;100.00
23433;BME280;41331;45.412;10.992;2023-04-01T00:29:58;99748.94;;;10.38;100.00
23433;BME280;41331;45.412;10.992;2023-04-01T00:32:26;99739.88;;;10.34;100.00
23433;BME280;41331;45.412;10.992;2023-04-01T00:34:53;99742.03;;;10.28;100.00
23433;BME280;41331;45.412;10.992;2023-04-01T00:37:21;99755.84;;;10.23;100.00
23433;BME280;41331;45.412;10.992;2023-04-01T00:39:48;99752.06;;;10.24;100.00
23433;BME280;41331;45.412;10.992;2023-04-01T00:42:16;99748.50;;;10.24;100.00
23433;BME280;41331;45.412;10.992;2023-04-01T00:44:45;99761.88;;;10.29;100.00
23433;BME280;41331;45.412;10.992;2023-04-01T00:47:13;99764.28;;;10.30;100.00
23433;BME280;41331;45.412;10.992;2023-04-01T00:49:43;99767.75;;;10.19;100.00
23433;BME280;41331;45.412;10.992;2023-04-01T00:52:14;99766.53;;;10.16;100.00
23433;BME280;41331;45.412;10.992;2023-04-01T00:54:46;99770.72;;;10.01;100.00
23433;BME280;41331;45.412;10.992;2023-04-01T00:57:28;99770.50;;;9.94;100.00
23433;BME280;41331;45.412;10.992;2023-04-01T00:59:56;99765.06;;;9.94;100.00
23433;BME280;41331;45.412;10.992;2023-04-01T01:02:25;99768.47;;;9.91;100.00
23433;BME280;41331;45.412;10.992;2023-04-01T01:04:52;99768.25;;;9.84;100.00
23433;BME280;41331;45.412;10.992;2023-04-01T01:07:38;99774.25;;;9.90;100.00
23433;BME280;41331;45.412;10.992;2023-04-01T01:10:12;99762.00;;;9.83;100.00
23433;BME280;41331;45.412;10.992;2023-04-01T01:23:21;99764.81;;;9.50;100.00
23433;BME280;41331;45.412;10.992;2023-04-01T01:28:55;99767.03;;;9.36;100.00
23433;BME280;41331;45.412;10.992;2023-04-01T01:34:24;99758.81;;;9.57;100.00
23433;BME280;41331;45.412;10.992;2023-04-01T01:37:01;99758.94;;;9.60;100.00
23433;BME280;41331;45.412;10.992;2023-04-01T01:39:33;99762.78;;;9.72;100.00
23433;BME280;41331;45.412;10.992;2023-04-01T01:42:05;99753.72;;;9.68;100.00
23433;BME280;41331;45.412;10.992;2023-04-01T01:44:35;99751.78;;;9.56;100.00
23433;BME280;41331;45.412;10.992;2023-04-01T01:47:05;99749.06;;;9.56;100.00
23433;BME280;41331;45.412;10.992;2023-04-01T01:49:33;99754.06;;;9.54;100.00
23433;BME280;41331;45.412;10.992;2023-04-01T01:52:02;99749.16;;;9.47;100.00
23433;BME280;41331;45.412;10.992;2023-04-01T01:54:30;99756.38;;;9.31;100.00
23433;BME280;41331;45.412;10.992;2023-04-01T01:57:07;99756.81;;;9.21;100.00
23433;BME280;41331;45.412;10.992;2023-04-01T01:59:41;99746.94;;;9.16;100.00
23433;BME280;41331;45.412;10.992;2023-04-01T02:02:15;99737.94;;;9.24;100.00
23433;BME280;41331;45.412;10.992;2023-04-01T02:04:45;99743.47;;;9.28;100.00
23433;BME280;41331;45.412;10.992;2023-04-01T02:07:30;99754.19;;;9.12;100.00
23433;BME280;41331;45.412;10.992;2023-04-01T02:10:00;99751.69;;;9.07;100.00
23433;BME280;41331;45.412;10.992;2023-04-01T02:12:28;99749.75;;;9.07;100.00
23433;BME280;41331;45.412;10.992;2023-04-01T02:15:10;99753.38;;;9.12;100.00
23433;BME280;41331;45.412;10.992;2023-04-01T02:17:43;99747.97;;;9.12;100.00
23433;BME280;41331;45.412;10.992;2023-04-01T02:22:53;99754.97;;;8.79;100.00
23433;BME280;41331;45.412;10.992;2023-04-01T02:25:28;99750.41;;;8.71;100.00
23433;BME280;41331;45.412;10.992;2023-04-01T02:27:58;99751.56;;;8.82;100.00
23433;BME280;41331;45.412;10.992;2023-04-01T02:30:29;99748.00;;;8.91;100.00
23433;BME280;41331;45.412;10.992;2023-04-01T02:32:57;99754.19;;;8.79;100.00
23433;BME280;41331;45.412;10.992;2023-04-01T02:35:26;99748.97;;;8.74;100.00
23433;BME280;41331;45.412;10.992;2023-04-01T02:37:54;99745.31;;;8.70;100.00
23433;BME280;41331;45.412;10.992;2023-04-01T02:40:22;99733.41;;;8.62;100.00
23433;BME280;41331;45.412;10.992;2023-04-01T02:42:50;99729.91;;;8.62;100.00
23433;BME280;41331;45.412;10.992;2023-04-01T02:45:18;99731.47;;;8.63;100.00
23433;BME280;41331;45.412;10.992;2023-04-01T02:47:45;99744.63;;;8.73;100.00
23433;BME280;41331;45.412;10.992;2023-04-01T02:50:12;99747.03;;;8.74;100.00
23433;BME280;41331;45.412;10.992;2023-04-01T02:52:40;99752.25;;;8.79;100.00
23433;BME280;41331;45.412;10.992;2023-04-01T02:55:08;99759.41;;;8.84;100.00
23433;BME280;41331;45.412;10.992;2023-04-01T02:57:35;99758.59;;;8.63;100.00
23433;BME280;41331;45.412;10.992;2023-04-01T03:00:03;99761.31;;;8.63;100.00
23433;BME280;41331;45.412;10.992;2023-04-01T03:02:30;99761.31;;;8.63;100.00
23433;BME280;41331;45.412;10.992;2023-04-01T03:04:58;99754.91;;;8.67;100.00
23433;BME280;41331;45.412;10.992;2023-04-01T03:07:25;99762.72;;;8.48;100.00
23433;BME280;41331;45.412;10.992;2023-04-01T03:09:53;99768.47;;;8.46;100.00
23433;BME280;41331;45.412;10.992;2023-04-01T03:12:20;99771.19;;;8.46;100.00
23433;BME280;41331;45.412;10.992;2023-04-01T03:14:50;99767.09;;;8.40;100.00
23433;BME280;41331;45.412;10.992;2023-04-01T03:17:18;99757.63;;;8.46;100.00
23433;BME280;41331;45.412;10.992;2023-04-01T03:19:45;99751.03;;;8.26;100.00
23433;BME280;41331;45.412;10.992;2023-04-01T03:22:13;99748.13;;;8.31;100.00
23433;BME280;41331;45.412;10.992;2023-04-01T03:24:40;99757.06;;;8.32;100.00
23433;BME280;41331;45.412;10.992;2023-04-01T03:27:08;99769.88;;;8.23;100.00
23433;BME280;41331;45.412;10.992;2023-04-01T03:29:35;99767.34;;;8.18;100.00
23433;BME280;41331;45.412;10.992;2023-04-01T03:32:03;99760.94;;;8.22;100.00
23433;BME280;41331;45.412;10.992;2023-04-01T03:34:30;99756.13;;;8.28;100.00
23433;BME280;41331;45.412;10.992;2023-04-01T03:36:58;99755.31;;;8.36;100.00
23433;BME280;41331;45.412;10.992;2023-04-01T03:39:26;99761.81;;;8.35;100.00
23433;BME280;41331;45.412;10.992;2023-04-01T03:41:54;99766.53;;;8.47;100.00
23433;BME280;41331;45.412;10.992;2023-04-01T03:44:22;99767.03;;;8.49;100.00
23433;BME280;41331;45.412;10.992;2023-04-01T03:46:52;99775.63;;;8.51;100.00
23433;BME280;41331;45.412;10.992;2023-04-01T03:49:20;99770.97;;;8.51;100.00
23433;BME280;41331;45.412;10.992;2023-04-01T03:51:47;99773.63;;;8.60;100.00
23433;BME280;41331;45.412;10.992;2023-04-01T03:54:15;99774.44;;;8.61;100.00
23433;BME280;41331;45.412;10.992;2023-04-01T03:56:43;99784.50;;;8.60;100.00
23433;BME280;41331;45.412;10.992;2023-04-01T03:59:11;99789.56;;;8.62;100.00
23433;BME280;41331;45.412;10.992;2023-04-01T04:01:39;99791.56;;;8.73;100.00
23433;BME280;41331;45.412;10.992;2023-04-01T04:04:06;99781.38;;;8.70;100.00
23433;BME280;41331;45.412;10.992;2023-04-01T04:06:34;99790.91;;;8.76;100.00
23433;BME280;41331;45.412;10.992;2023-04-01T04:09:02;99789.19;;;8.72;100.00
23433;BME280;41331;45.412;10.992;2023-04-01T04:11:31;99798.09;;;8.72;100.00
23433;BME280;41331;45.412;10.992;2023-04-01T04:13:59;99792.44;;;8.65;100.00
23433;BME280;41331;45.412;10.992;2023-04-01T04:16:26;99787.25;;;8.51;100.00
23433;BME280;41331;45.412;10.992;2023-04-01T04:18:59;99791.34;;;8.57;100.00
23433;BME280;41331;45.412;10.992;2023-04-01T04:21:26;99809.50;;;8.66;100.00
23433;BME280;41331;45.412;10.992;2023-04-01T04:23:54;99794.47;;;8.68;100.00
23433;BME280;41331;45.412;10.992;2023-04-01T04:26:21;99794.22;;;8.61;100.00
23433;BME280;41331;45.412;10.992;2023-04-01T04:28:57;99783.22;;;8.57;100.00
23433;BME280;41331;45.412;10.992;2023-04-01T04:31:25;99794.59;;;8.51;100.00
23433;BME280;41331;45.412;10.992;2023-04-01T04:33:55;99805.66;;;8.46;100.00
23433;BME280;41331;45.412;10.992;2023-04-01T04:36:23;99801.31;;;8.53;100.00
23433;BME280;41331;45.412;10.992;2023-04-01T04:38:51;99804.66;;;8.50;100.00
23433;BME280;41331;45.412;10.992;2023-04-01T04:41:19;99802.69;;;8.60;100.00
23433;BME280;41331;45.412;10.992;2023-04-01T04:43:52;99805.00;;;8.49;100.00
23433;BME280;41331;45.412;10.992;2023-04-01T04:46:20;99808.16;;;8.51;100.00
23433;BME280;41331;45.412;10.992;2023-04-01T04:48:51;99806.81;;;8.36;100.00
23433;BME280;41331;45.412;10.992;2023-04-01T04:51:19;99802.47;;;8.44;100.00
23433;BME280;41331;45.412;10.992;2023-04-01T04:53:48;99815.91;;;8.40;100.00
23433;BME280;41331;45.412;10.992;2023-04-01T04:56:21;99812.66;;;8.47;100.00
23433;BME280;41331;45.412;10.992;2023-04-01T04:59:03;99812.25;;;8.36;100.00
23433;BME280;41331;45.412;10.992;2023-04-01T05:01:40;99816.38;;;8.34;100.00
23433;BME280;41331;45.412;10.992;2023-04-01T05:04:08;99832.00;;;8.37;100.00
23433;BME280;41331;45.412;10.992;2023-04-01T05:06:35;99823.88;;;8.37;100.00
23433;BME280;41331;45.412;10.992;2023-04-01T05:09:03;99819.34;;;8.49;100.00
23433;BME280;41331;45.412;10.992;2023-04-01T05:11:31;99829.22;;;8.54;100.00
23433;BME280;41331;45.412;10.992;2023-04-01T05:13:58;99826.50;;;8.54;100.00
23433;BME280;41331;45.412;10.992;2023-04-01T05:16:26;99817.19;;;8.64;100.00
23433;BME280;41331;45.412;10.992;2023-04-01T05:18:54;99812.75;;;8.59;100.00
23433;BME280;41331;45.412;10.992;2023-04-01T05:21:22;99813.16;;;8.70;100.00
23433;BME280;41331;45.412;10.992;2023-04-01T05:23:49;99818.03;;;8.55;100.00
23433;BME280;41331;45.412;10.992;2023-04-01T05:26:17;99821.97;;;8.58;100.00
23433;BME280;41331;45.412;10.992;2023-04-01T05:28:44;99833.16;;;8.56;100.00
23433;BME280;41331;45.412;10.992;2023-04-01T05:31:12;99824.78;;;8.70;100.00
23433;BME280;41331;45.412;10.992;2023-04-01T05:33:43;99820.00;;;8.67;100.00
23433;BME280;41331;45.412;10.992;2023-04-01T05:36:15;99814.53;;;8.76;100.00
23433;BME280;41331;45.412;10.992;2023-04-01T05:38:43;99834.75;;;8.78;100.00
23433;BME280;41331;45.412;10.992;2023-04-01T05:41:16;99826.91;;;8.86;100.00
23433;BME280;41331;45.412;10.992;2023-04-01T05:43:45;99839.28;;;8.95;100.00
23433;BME280;41331;45.412;10.992;2023-04-01T05:46:32;99836.75;;;9.11;100.00
23433;BME280;41331;45.412;10.992;2023-04-01T05:49:20;99837.63;;;9.24;100.00
23433;BME280;41331;45.412;10.992;2023-04-01T05:51:49;99834.91;;;9.24;100.00
23433;BME280;41331;45.412;10.992;2023-04-01T05:54:19;99837.56;;;9.90;100.00
23433;BME280;41331;45.412;10.992;2023-04-01T05:56:46;99845.41;;;10.41;100.00
23433;BME280;41331;45.412;10.992;2023-04-01T05:59:15;99852.97;;;10.23;100.00
23433;BME280;41331;45.412;10.992;2023-04-01T06:01:42;99844.34;;;9.84;100.00
23433;BME280;41331;45.412;10.992;2023-04-01T06:04:13;99839.56;;;9.93;100.00
23433;BME280;41331;45.412;10.992;2023-04-01T06:06:43;99837.41;;;9.74;100.00
23433;BME280;41331;45.412;10.992;2023-04-01T06:09:17;99840.56;;;9.76;100.00
23433;BME280;41331;45.412;10.992;2023-04-01T06:20:25;99844.34;;;10.08;100.00
23433;BME280;41331;45.412;10.992;2023-04-01T06:26:18;99836.00;;;11.31;100.00
23433;BME280;41331;45.412;10.992;2023-04-01T06:42:45;99847.50;;;16.78;76.00
23433;BME280;41331;45.412;10.992;2023-04-01T06:49:05;99846.69;;;17.86;70.55
23433;BME280;41331;45.412;10.992;2023-04-01T06:55:02;99857.28;;;16.72;71.95
23433;BME280;41331;45.412;10.992;2023-04-01T06:57:58;99850.44;;;17.21;68.91
23433;BME280;41331;45.412;10.992;2023-04-01T07:00:30;99846.66;;;20.26;57.87
23433;BME280;41331;45.412;10.992;2023-04-01T07:03:33;99860.41;;;19.81;58.15
23433;BME280;41331;45.412;10.992;2023-04-01T07:06:08;99856.13;;;20.25;55.86
23433;BME280;41331;45.412;10.992;2023-04-01T07:08:43;99861.22;;;20.75;54.57
23433;BME280;41331;45.412;10.992;2023-04-01T07:11:26;99862.00;;;20.76;53.59
23433;BME280;41331;45.412;10.992;2023-04-01T07:14:35;99855.94;;;20.50;56.35
23433;BME280;41331;45.412;10.992;2023-04-01T07:22:36;99868.66;;;21.50;50.88
23433;BME280;41331;45.412;10.992;2023-04-01T07:25:29;99857.84;;;22.13;48.66
23433;BME280;41331;45.412;10.992;2023-04-01T07:28:21;99861.22;;;22.48;47.10
23433;BME280;41331;45.412;10.992;2023-04-01T07:31:18;99859.03;;;23.22;46.65
23433;BME280;41331;45.412;10.992;2023-04-01T07:36:48;99858.81;;;22.50;48.28
23433;BME280;41331;45.412;10.992;2023-04-01T07:56:07;99874.91;;;24.60;42.38
23433;BME280;41331;45.412;10.992;2023-04-01T08:09:52;99868.06;;;24.48;42.45
23433;BME280;41331;45.412;10.992;2023-04-01T08:21:23;99869.28;;;25.34;39.28
23433;BME280;41331;45.412;10.992;2023-04-01T08:23:55;99870.69;;;26.06;39.48
23433;BME280;41331;45.412;10.992;2023-04-01T08:26:35;99875.06;;;24.98;40.24
23433;BME280;41331;45.412;10.992;2023-04-01T08:29:19;99872.72;;;25.93;37.97
23433;BME280;41331;45.412;10.992;2023-04-01T08:31:49;99865.00;;;26.09;39.03
23433;BME280;41331;45.412;10.992;2023-04-01T08:34:25;99859.75;;;25.99;38.09
23433;BME280;41331;45.412;10.992;2023-04-01T08:37:15;99855.81;;;26.69;37.66
23433;BME280;41331;45.412;10.992;2023-04-01T08:45:44;99853.88;;;26.79;37.25
23433;BME280;41331;45.412;10.992;2023-04-01T08:53:56;99866.31;;;24.54;41.64
23433;BME280;41331;45.412;10.992;2023-04-01T08:56:58;99870.47;;;24.29;41.08
23433;BME280;41331;45.412;10.992;2023-04-01T09:03:13;99870.28;;;26.55;37.13
23433;BME280;41331;45.412;10.992;2023-04-01T09:20:47;99873.22;;;27.08;36.63
23433;BME280;41331;45.412;10.992;2023-04-01T09:23:36;99878.00;;;26.51;35.83
23433;BME280;41331;45.412;10.992;2023-04-01T09:26:15;99872.28;;;25.81;37.44
23433;BME280;41331;45.412;10.992;2023-04-01T09:40:22;99860.63;;;26.69;36.40
23433;BME280;41331;45.412;10.992;2023-04-01T10:02:55;99855.06;;;27.66;33.73
23433;BME280;41331;45.412;10.992;2023-04-01T10:14:53;99848.66;;;27.96;32.56
23433;BME280;41331;45.412;10.992;2023-04-01T10:20:02;99839.59;;;27.74;33.37
23433;BME280;41331;45.412;10.992;2023-04-01T10:22:49;99834.19;;;26.60;34.90
23433;BME280;41331;45.412;10.992;2023-04-01T10:36:54;99834.56;;;28.09;28.00
23433;BME280;41331;45.412;10.992;2023-04-01T10:48:24;99824.69;;;27.15;26.21
23433;BME280;41331;45.412;10.992;2023-04-01T10:51:15;99818.00;;;27.43;27.15
23433;BME280;41331;45.412;10.992;2023-04-01T10:56:54;99822.88;;;27.52;26.76
23433;BME280;41331;45.412;10.992;2023-04-01T11:00:14;99819.41;;;26.73;27.40
23433;BME280;41331;45.412;10.992;2023-04-01T11:26:07;99806.22;;;26.04;29.70
23433;BME280;41331;45.412;10.992;2023-04-01T11:34:14;99804.16;;;26.30;28.52
23433;BME280;41331;45.412;10.992;2023-04-01T11:43:46;99799.78;;;25.94;27.83
23433;BME280;41331;45.412;10.992;2023-04-01T11:46:21;99796.97;;;26.42;25.99
23433;BME280;41331;45.412;10.992;2023-04-01T12:02:14;99788.44;;;25.76;27.23
23433;BME280;41331;45.412;10.992;2023-04-01T12:18:20;99785.16;;;25.14;29.99
23433;BME280;41331;45.412;10.992;2023-04-01T12:20:50;99786.16;;;25.20;30.44
23433;BME280;41331;45.412;10.992;2023-04-01T12:32:15;99778.50;;;25.75;29.73
23433;BME280;41331;45.412;10.992;2023-04-01T12:34:51;99767.88;;;25.95;28.14
23433;BME280;41331;45.412;10.992;2023-04-01T12:37:36;99781.84;;;25.82;24.93
23433;BME280;41331;45.412;10.992;2023-04-01T12:40:20;99767.56;;;25.93;24.60
23433;BME280;41331;45.412;10.992;2023-04-01T12:43:11;99770.50;;;25.51;25.59
23433;BME280;41331;45.412;10.992;2023-04-01T12:59:26;99760.22;;;25.48;25.63
23433;BME280;41331;45.412;10.992;2023-04-01T13:02:21;99762.25;;;25.61;25.10
23433;BME280;41331;45.412;10.992;2023-04-01T13:16:33;99737.59;;;24.95;25.96
23433;BME280;41331;45.412;10.992;2023-04-01T13:19:35;99745.59;;;25.70;25.25
23433;BME280;41331;45.412;10.992;2023-04-01T13:22:15;99747.75;;;25.40;25.02
23433;BME280;41331;45.412;10.992;2023-04-01T13:27:20;99737.38;;;25.53;26.22
23433;BME280;41331;45.412;10.992;2023-04-01T13:30:18;99732.38;;;26.08;25.85
23433;BME280;41331;45.412;10.992;2023-04-01T13:33:38;99730.44;;;25.96;25.48
23433;BME280;41331;45.412;10.992;2023-04-01T13:35:56;99730.34;;;25.49;25.32
23433;BME280;41331;45.412;10.992;2023-04-01T13:41:48;99712.22;;;25.19;25.44
23433;BME280;41331;45.412;10.992;2023-04-01T13:43:59;99709.94;;;24.88;27.24
23433;BME280;41331;45.412;10.992;2023-04-01T13:52:22;99672.94;;;23.91;27.58
23433;BME280;41331;45.412;10.992;2023-04-01T14:11:56;99681.97;;;23.63;27.58
23433;BME280;41331;45.412;10.992;2023-04-01T14:14:55;99677.19;;;23.96;26.21
23433;BME280;41331;45.412;10.992;2023-04-01T14:32:11;99670.56;;;22.92;27.92
23433;BME280;41331;45.412;10.992;2023-04-01T14:35:02;99666.28;;;23.72;28.67
23433;BME280;41331;45.412;10.992;2023-04-01T14:38:02;99653.47;;;24.20;26.33
23433;BME280;41331;45.412;10.992;2023-04-01T14:40:49;99651.03;;;23.93;27.18
23433;BME280;41331;45.412;10.992;2023-04-01T14:43:28;99660.44;;;23.34;26.39
23433;BME280;41331;45.412;10.992;2023-04-01T14:46:34;99651.38;;;22.81;28.01
23433;BME280;41331;45.412;10.992;2023-04-01T14:49:22;99656.03;;;23.20;28.70
23433;BME280;41331;45.412;10.992;2023-04-01T14:51:52;99650.06;;;23.71;29.56
23433;BME280;41331;45.412;10.992;2023-04-01T14:54:30;99639.81;;;24.26;28.30
23433;BME280;41331;45.412;10.992;2023-04-01T14:57:12;99641.78;;;24.42;28.94
23433;BME280;41331;45.412;10.992;2023-04-01T14:59:46;99646.63;;;24.09;26.63
23433;BME280;41331;45.412;10.992;2023-04-01T15:16:37;99645.13;;;21.97;29.19
23433;BME280;41331;45.412;10.992;2023-04-01T15:19:27;99639.31;;;21.92;29.60
23433;BME280;41331;45.412;10.992;2023-04-01T15:22:26;99631.41;;;21.90;28.59
23433;BME280;41331;45.412;10.992;2023-04-01T15:25:15;99632.56;;;21.50;29.02
23433;BME280;41331;45.412;10.992;2023-04-01T15:28:05;99628.91;;;21.29;29.46
23433;BME280;41331;45.412;10.992;2023-04-01T15:31:00;99631.06;;;21.18;30.96
23433;BME280;41331;45.412;10.992;2023-04-01T15:33:53;99630.34;;;21.14;31.24
23433;BME280;41331;45.412;10.992;2023-04-01T15:36:53;99632.50;;;21.26;31.34
23433;BME280;41331;45.412;10.992;2023-04-01T15:44:55;99640.47;;;21.48;32.05
23433;BME280;41331;45.412;10.992;2023-04-01T15:50:18;99643.97;;;21.75;30.09
23433;BME280;41331;45.412;10.992;2023-04-01T15:53:12;99637.69;;;21.94;29.34
23433;BME280;41331;45.412;10.992;2023-04-01T16:06:53;99648.28;;;22.59;27.31
23433;BME280;41331;45.412;10.992;2023-04-01T16:20:50;99623.38;;;22.19;27.77
23433;BME280;41331;45.412;10.992;2023-04-01T16:23:40;99621.31;;;21.80;27.91
23433;BME280;41331;45.412;10.992;2023-04-01T16:29:17;99626.72;;;21.44;28.64
23433;BME280;41331;45.412;10.992;2023-04-01T16:31:48;99625.66;;;21.58;28.86
23433;BME280;41331;45.412;10.992;2023-04-01T16:37:03;99623.09;;;21.47;29.41
23433;BME280;41331;45.412;10.992;2023-04-01T16:44:44;99628.06;;;21.09;28.29
23433;BME280;41331;45.412;10.992;2023-04-01T16:47:15;99630.00;;;21.08;29.02
23433;BME280;41331;45.412;10.992;2023-04-01T16:54:52;99633.94;;;21.11;28.98
23433;BME280;41331;45.412;10.992;2023-04-01T16:57:26;99623.03;;;20.73;28.61
23433;BME280;41331;45.412;10.992;2023-04-01T17:00:01;99628.03;;;20.82;28.85
23433;BME280;41331;45.412;10.992;2023-04-01T17:02:35;99629.09;;;20.64;29.24
23433;BME280;41331;45.412;10.992;2023-04-01T17:05:05;99629.88;;;20.65;29.05
23433;BME280;41331;45.412;10.992;2023-04-01T17:10:17;99631.25;;;20.15;30.87
23433;BME280;41331;45.412;10.992;2023-04-01T17:15:46;99634.75;;;19.85;31.60
23433;BME280;41331;45.412;10.992;2023-04-01T17:21:20;99641.84;;;19.83;31.07
23433;BME280;41331;45.412;10.992;2023-04-01T17:26:32;99641.59;;;19.70;31.06
23433;BME280;41331;45.412;10.992;2023-04-01T17:29:09;99635.78;;;19.61;31.20
23433;BME280;41331;45.412;10.992;2023-04-01T17:31:52;99650.84;;;19.49;31.75
23433;BME280;41331;45.412;10.992;2023-04-01T17:39:33;99642.03;;;19.17;33.91
23433;BME280;41331;45.412;10.992;2023-04-01T17:42:08;99651.22;;;19.03;34.77
23433;BME280;41331;45.412;10.992;2023-04-01T17:52:19;99663.72;;;18.37;38.18
23433;BME280;41331;45.412;10.992;2023-04-01T17:57:34;99667.31;;;18.17;39.49
23433;BME280;41331;45.412;10.992;2023-04-01T18:08:59;99684.72;;;17.78;43.05
23433;BME280;41331;45.412;10.992;2023-04-01T18:11:39;99685.88;;;17.77;43.24
23433;BME280;41331;45.412;10.992;2023-04-01T18:14:19;99688.63;;;17.70;43.65
23433;BME280;41331;45.412;10.992;2023-04-01T18:22:53;99688.63;;;17.38;45.52
23433;BME280;41331;45.412;10.992;2023-04-01T18:27:50;99705.13;;;17.23;46.29
23433;BME280;41331;45.412;10.992;2023-04-01T18:30:28;99705.13;;;17.38;45.80
23433;BME280;41331;45.412;10.992;2023-04-01T18:32:58;99714.53;;;17.15;46.53
23433;BME280;41331;45.412;10.992;2023-04-01T18:35:29;99721.56;;;17.05;47.36
23433;BME280;41331;45.412;10.992;2023-04-01T18:38:19;99729.84;;;17.09;47.19
23433;BME280;41331;45.412;10.992;2023-04-01T18:41:02;99725.47;;;17.01;47.68
23433;BME280;41331;45.412;10.992;2023-04-01T18:52:07;99733.66;;;16.79;48.83
23433;BME280;41331;45.412;10.992;2023-04-01T18:55:14;99732.50;;;16.84;47.87
23433;BME280;41331;45.412;10.992;2023-04-01T18:57:50;99732.84;;;16.75;47.36
23433;BME280;41331;45.412;10.992;2023-04-01T19:00:20;99747.00;;;16.81;46.64
23433;BME280;41331;45.412;10.992;2023-04-01T19:05:39;99746.59;;;16.72;45.73
23433;BME280;41331;45.412;10.992;2023-04-01T19:29:34;99779.25;;;16.22;43.05
23433;BME280;41331;45.412;10.992;2023-04-01T19:37:43;99791.38;;;16.17;43.27
23433;BME280;41331;45.412;10.992;2023-04-01T19:40:28;99788.72;;;16.28;42.86
23433;BME280;41331;45.412;10.992;2023-04-01T19:52:47;99808.84;;;15.54;47.20
23433;BME280;41331;45.412;10.992;2023-04-01T19:55:34;99806.06;;;15.50;47.09
23433;BME280;41331;45.412;10.992;2023-04-01T20:00:50;99810.78;;;15.53;47.23
23433;BME280;41331;45.412;10.992;2023-04-01T20:06:05;99809.13;;;15.45;47.54
23433;BME280;41331;45.412;10.992;2023-04-01T20:14:36;99809.03;;;15.35;50.11
23433;BME280;41331;45.412;10.992;2023-04-01T20:19:26;99810.09;;;15.23;51.79
23433;BME280;41331;45.412;10.992;2023-04-01T20:21:56;99810.59;;;15.36;52.29
23433;BME280;41331;45.412;10.992;2023-04-01T20:24:35;99811.41;;;15.36;51.89
23433;BME280;41331;45.412;10.992;2023-04-01T20:27:09;99811.91;;;15.12;51.64
23433;BME280;41331;45.412;10.992;2023-04-01T20:35:14;99812.44;;;15.24;50.37
23433;BME280;41331;45.412;10.992;2023-04-01T20:37:55;99812.88;;;15.30;50.09
23433;BME280;41331;45.412;10.992;2023-04-01T20:40:30;99808.97;;;15.27;49.95
23433;BME280;41331;45.412;10.992;2023-04-01T20:45:56;99818.91;;;15.09;50.30
23433;BME280;41331;45.412;10.992;2023-04-01T20:53:20;99823.81;;;14.93;51.18
23433;BME280;41331;45.412;10.992;2023-04-01T20:55:58;99830.22;;;15.04;50.92
23433;BME280;41331;45.412;10.992;2023-04-01T20:58:29;99837.31;;;15.09;51.03
23433;BME280;41331;45.412;10.992;2023-04-01T21:01:05;99833.72;;;15.01;51.52
23433;BME280;41331;45.412;10.992;2023-04-01T21:06:59;99833.84;;;15.12;51.91
23433;BME280;41331;45.412;10.992;2023-04-01T21:22:24;99848.22;;;15.05;60.97
23433;BME280;41331;45.412;10.992;2023-04-01T21:27:45;99847.47;;;15.38;64.53
23433;BME280;41331;45.412;10.992;2023-04-01T21:32:46;99852.19;;;15.41;67.69
23433;BME280;41331;45.412;10.992;2023-04-01T21:37:53;99856.50;;;15.76;68.66
23433;BME280;41331;45.412;10.992;2023-04-01T22:00:33;99867.59;;;15.53;71.80
23433;BME280;41331;45.412;10.992;2023-04-01T22:11:00;99864.91;;;15.57;71.97
23433;BME280;41331;45.412;10.992;2023-04-01T22:18:32;99858.25;;;15.58;72.64
23433;BME280;41331;45.412;10.992;2023-04-01T22:21:09;99855.91;;;15.60;72.17
23433;BME280;41331;45.412;10.992;2023-04-01T22:23:45;99858.19;;;15.54;72.67
23433;BME280;41331;45.412;10.992;2023-04-01T22:26:19;99856.81;;;15.67;72.41
23433;BME280;41331;45.412;10.992;2023-04-01T22:29:03;99857.97;;;15.66;72.41
23433;BME280;41331;45.412;10.992;2023-04-01T22:31:35;99855.63;;;15.68;72.48
23433;BME280;41331;45.412;10.992;2023-04-01T22:34:12;99853.16;;;15.60;72.84
23433;BME280;41331;45.412;10.992;2023-04-01T22:47:00;99850.91;;;15.65;73.03
23433;BME280;41331;45.412;10.992;2023-04-01T22:49:32;99866.31;;;15.77;72.50
23433;BME280;41331;45.412;10.992;2023-04-01T22:54:31;99852.91;;;15.68;72.48
23433;BME280;41331;45.412;10.992;2023-04-01T22:57:09;99856.03;;;15.70;72.19
23433;BME280;41331;45.412;10.992;2023-04-01T23:02:33;99863.22;;;15.82;71.24
23433;BME280;41331;45.412;10.992;2023-04-01T23:05:03;99863.63;;;15.84;71.93
23433;BME280;41331;45.412;10.992;2023-04-01T23:07:38;99873.47;;;15.51;75.21
23433;BME280;41331;45.412;10.992;2023-04-01T23:10:28;99868.44;;;14.93;79.98
23433;BME280;41331;45.412;10.992;2023-04-01T23:12:58;99877.63;;;14.52;83.30
23433;BME280;41331;45.412;10.992;2023-04-01T23:15:26;99882.78;;;14.34;84.50